sensor_id;sensor_type;location;lat;lon;timestamp;temperature;humidity
4908;DHT22;64375;51.540;7.364;2024-03-08T00:00:42;6.20;93.10
4908;DHT22;64375;51.540;7.364;2024-03-08T00:03:13;6.20;93.00
4908;DHT22;64375;51.540;7.364;2024-03-08T00:05:51;6.30;92.40
4908;DHT22;64375;51.540;7.364;2024-03-08T00:08:19;6.20;92.30
4908;DHT22;64375;51.540;7.364;2024-03-08T00:11:04;6.20;92.50
4908;DHT22;64375;51.540;7.364;2024-03-08T00:13:32;6.20;92.70
4908;DHT22;64375;51.540;7.364;2024-03-08T00:16:04;6.10;92.50
4908;DHT22;64375;51.540;7.364;2024-03-08T00:18:38;6.20;97.60
4908;DHT22;64375;51.540;7.364;2024-03-08T00:21:06;6.40;93.40
4908;DHT22;64375;51.540;7.364;2024-03-08T00:23:43;6.40;92.60
4908;DHT22;64375;51.540;7.364;2024-03-08T00:26:13;6.20;91.90
4908;DHT22;64375;51.540;7.364;2024-03-08T00:28:41;6.20;92.20
4908;DHT22;64375;51.540;7.364;2024-03-08T00:31:09;6.00;92.70
4908;DHT22;64375;51.540;7.364;2024-03-08T00:33:40;5.90;92.60
4908;DHT22;64375;51.540;7.364;2024-03-08T00:36:10;6.00;94.00
4908;DHT22;64375;51.540;7.364;2024-03-08T00:38:38;6.10;92.60
4908;DHT22;64375;51.540;7.364;2024-03-08T00:41:06;6.10;92.70
4908;DHT22;64375;51.540;7.364;2024-03-08T00:43:47;6.10;92.30
4908;DHT22;64375;51.540;7.364;2024-03-08T00:46:20;6.10;92.40
4908;DHT22;64375;51.540;7.364;2024-03-08T00:48:57;6.10;92.80
4908;DHT22;64375;51.540;7.364;2024-03-08T00:51:29;6.20;92.90
4908;DHT22;64375;51.540;7.364;2024-03-08T00:54:00;6.20;92.40
4908;DHT22;64375;51.540;7.364;2024-03-08T00:56:40;6.20;92.90
4908;DHT22;64375;51.540;7.364;2024-03-08T00:59:09;6.10;92.20
4908;DHT22;64375;51.540;7.364;2024-03-08T01:01:49;6.10;92.50
4908;DHT22;64375;51.540;7.364;2024-03-08T01:04:29;6.10;94.90
4908;DHT22;64375;51.540;7.364;2024-03-08T01:06:57;6.20;92.70
4908;DHT22;64375;51.540;7.364;2024-03-08T01:09:26;6.20;93.20
4908;DHT22;64375;51.540;7.364;2024-03-08T01:11:57;6.10;92.50
4908;DHT22;64375;51.540;7.364;2024-03-08T01:14:55;6.10;92.20
4908;DHT22;64375;51.540;7.364;2024-03-08T01:17:29;6.00;92.70
4908;DHT22;64375;51.540;7.364;2024-03-08T01:19:57;5.90;94.60
4908;DHT22;64375;51.540;7.364;2024-03-08T01:22:29;6.00;93.60
4908;DHT22;64375;51.540;7.364;2024-03-08T01:25:00;6.10;92.60
4908;DHT22;64375;51.540;7.364;2024-03-08T01:27:27;6.00;92.40
4908;DHT22;64375;51.540;7.364;2024-03-08T01:29:57;6.00;92.10
4908;DHT22;64375;51.540;7.364;2024-03-08T01:32:32;5.90;92.20
4908;DHT22;64375;51.540;7.364;2024-03-08T01:35:08;5.90;93.50
4908;DHT22;64375;51.540;7.364;2024-03-08T01:37:43;5.90;94.40
4908;DHT22;64375;51.540;7.364;2024-03-08T01:40:16;5.90;92.60
4908;DHT22;64375;51.540;7.364;2024-03-08T01:42:53;5.70;93.40
4908;DHT22;64375;51.540;7.364;2024-03-08T01:45:25;5.80;92.60
4908;DHT22;64375;51.540;7.364;2024-03-08T01:47:56;5.70;92.40
4908;DHT22;64375;51.540;7.364;2024-03-08T01:50:24;5.70;92.40
4908;DHT22;64375;51.540;7.364;2024-03-08T01:52:55;5.70;95.60
4908;DHT22;64375;51.540;7.364;2024-03-08T01:55:26;5.80;93.00
4908;DHT22;64375;51.540;7.364;2024-03-08T01:57:55;5.80;93.00
4908;DHT22;64375;51.540;7.364;2024-03-08T02:00:25;5.80;92.50
4908;DHT22;64375;51.540;7.364;2024-03-08T02:02:59;5.80;92.80
4908;DHT22;64375;51.540;7.364;2024-03-08T02:05:34;5.80;94.10
4908;DHT22;64375;51.540;7.364;2024-03-08T02:08:02;5.80;93.60
4908;DHT22;64375;51.540;7.364;2024-03-08T02:10:44;5.80;92.80
4908;DHT22;64375;51.540;7.364;2024-03-08T02:13:13;5.80;92.80
4908;DHT22;64375;51.540;7.364;2024-03-08T02:16:12;5.80;92.50
4908;DHT22;64375;51.540;7.364;2024-03-08T02:18:46;5.70;94.40
4908;DHT22;64375;51.540;7.364;2024-03-08T02:21:17;5.80;95.60
4908;DHT22;64375;51.540;7.364;2024-03-08T02:23:51;5.90;93.10
4908;DHT22;64375;51.540;7.364;2024-03-08T02:26:19;5.90;93.40
4908;DHT22;64375;51.540;7.364;2024-03-08T02:28:50;5.80;92.80
4908;DHT22;64375;51.540;7.364;2024-03-08T02:31:18;5.80;93.70
4908;DHT22;64375;51.540;7.364;2024-03-08T02:33:48;5.80;95.20
4908;DHT22;64375;51.540;7.364;2024-03-08T02:36:17;5.90;93.80
4908;DHT22;64375;51.540;7.364;2024-03-08T02:38:46;5.90;93.10
4908;DHT22;64375;51.540;7.364;2024-03-08T02:41:16;5.90;93.00
4908;DHT22;64375;51.540;7.364;2024-03-08T02:43:44;5.90;92.60
4908;DHT22;64375;51.540;7.364;2024-03-08T02:46:12;5.80;94.00
4908;DHT22;64375;51.540;7.364;2024-03-08T02:48:42;5.80;95.90
4908;DHT22;64375;51.540;7.364;2024-03-08T02:51:13;5.90;94.70
4908;DHT22;64375;51.540;7.364;2024-03-08T02:53:44;6.00;92.80
4908;DHT22;64375;51.540;7.364;2024-03-08T02:56:15;5.90;93.30
4908;DHT22;64375;51.540;7.364;2024-03-08T02:58:45;5.80;92.70
4908;DHT22;64375;51.540;7.364;2024-03-08T03:01:15;5.80;93.60
4908;DHT22;64375;51.540;7.364;2024-03-08T03:03:58;5.80;97.00
4908;DHT22;64375;51.540;7.364;2024-03-08T03:06:32;5.90;94.00
4908;DHT22;64375;51.540;7.364;2024-03-08T03:09:02;5.90;93.10
4908;DHT22;64375;51.540;7.364;2024-03-08T03:11:33;5.80;93.00
4908;DHT22;64375;51.540;7.364;2024-03-08T03:14:09;5.70;93.20
4908;DHT22;64375;51.540;7.364;2024-03-08T03:16:43;5.80;94.90
4908;DHT22;64375;51.540;7.364;2024-03-08T03:19:12;5.90;93.30
4908;DHT22;64375;51.540;7.364;2024-03-08T03:21:44;5.80;92.60
4908;DHT22;64375;51.540;7.364;2024-03-08T03:24:14;5.70;92.90
4908;DHT22;64375;51.540;7.364;2024-03-08T03:26:53;5.60;93.00
4908;DHT22;64375;51.540;7.364;2024-03-08T03:29:29;5.60;94.00
4908;DHT22;64375;51.540;7.364;2024-03-08T03:32:00;5.60;94.00
4908;DHT22;64375;51.540;7.364;2024-03-08T03:34:34;5.60;92.80
4908;DHT22;64375;51.540;7.364;2024-03-08T03:37:06;5.60;92.60
4908;DHT22;64375;51.540;7.364;2024-03-08T03:39:36;5.40;93.20
4908;DHT22;64375;51.540;7.364;2024-03-08T03:42:31;5.40;93.80
4908;DHT22;64375;51.540;7.364;2024-03-08T03:45:00;5.30;94.10
4908;DHT22;64375;51.540;7.364;2024-03-08T03:47:32;5.20;93.50
4908;DHT22;64375;51.540;7.364;2024-03-08T03:50:03;5.30;93.50
4908;DHT22;64375;51.540;7.364;2024-03-08T03:52:31;5.30;93.20
4908;DHT22;64375;51.540;7.364;2024-03-08T03:55:03;5.20;93.50
4908;DHT22;64375;51.540;7.364;2024-03-08T03:57:32;5.10;93.10
4908;DHT22;64375;51.540;7.364;2024-03-08T04:00:11;5.10;94.40
4908;DHT22;64375;51.540;7.364;2024-03-08T04:02:40;5.10;94.20
4908;DHT22;64375;51.540;7.364;2024-03-08T04:05:10;5.10;93.30
4908;DHT22;64375;51.540;7.364;2024-03-08T04:07:41;5.00;93.80
4908;DHT22;64375;51.540;7.364;2024-03-08T04:10:11;4.90;93.70
4908;DHT22;64375;51.540;7.364;2024-03-08T04:12:39;4.90;93.90
4908;DHT22;64375;51.540;7.364;2024-03-08T04:15:08;4.80;94.80
4908;DHT22;64375;51.540;7.364;2024-03-08T04:17:37;4.90;94.30
4908;DHT22;64375;51.540;7.364;2024-03-08T04:20:12;4.80;94.00
4908;DHT22;64375;51.540;7.364;2024-03-08T04:22:44;4.80;93.90
4908;DHT22;64375;51.540;7.364;2024-03-08T04:25:20;4.70;94.80
4908;DHT22;64375;51.540;7.364;2024-03-08T04:27:48;4.70;94.20
4908;DHT22;64375;51.540;7.364;2024-03-08T04:30:16;4.70;94.40
4908;DHT22;64375;51.540;7.364;2024-03-08T04:32:45;4.70;93.90
4908;DHT22;64375;51.540;7.364;2024-03-08T04:35:15;4.70;94.70
4908;DHT22;64375;51.540;7.364;2024-03-08T04:37:46;4.60;94.80
4908;DHT22;64375;51.540;7.364;2024-03-08T04:40:21;4.70;95.50
4908;DHT22;64375;51.540;7.364;2024-03-08T04:42:49;4.70;95.50
4908;DHT22;64375;51.540;7.364;2024-03-08T04:45:23;4.80;95.80
4908;DHT22;64375;51.540;7.364;2024-03-08T04:47:54;4.90;97.20
4908;DHT22;64375;51.540;7.364;2024-03-08T04:50:34;5.10;95.00
4908;DHT22;64375;51.540;7.364;2024-03-08T04:53:05;5.10;94.30
4908;DHT22;64375;51.540;7.364;2024-03-08T04:55:36;5.10;94.40
4908;DHT22;64375;51.540;7.364;2024-03-08T04:58:04;5.10;93.80
4908;DHT22;64375;51.540;7.364;2024-03-08T05:00:35;5.10;98.30
4908;DHT22;64375;51.540;7.364;2024-03-08T05:03:04;5.20;95.10
4908;DHT22;64375;51.540;7.364;2024-03-08T05:05:32;5.20;94.70
4908;DHT22;64375;51.540;7.364;2024-03-08T05:08:03;5.30;94.80
4908;DHT22;64375;51.540;7.364;2024-03-08T05:10:32;5.30;94.40
4908;DHT22;64375;51.540;7.364;2024-03-08T05:13:07;5.30;95.90
4908;DHT22;64375;51.540;7.364;2024-03-08T05:15:37;5.30;95.40
4908;DHT22;64375;51.540;7.364;2024-03-08T05:18:17;5.30;93.30
4908;DHT22;64375;51.540;7.364;2024-03-08T05:20:46;5.20;95.70
4908;DHT22;64375;51.540;7.364;2024-03-08T05:23:14;5.30;95.90
4908;DHT22;64375;51.540;7.364;2024-03-08T05:25:50;5.40;93.80
4908;DHT22;64375;51.540;7.364;2024-03-08T05:28:29;5.40;94.90
4908;DHT22;64375;51.540;7.364;2024-03-08T05:31:08;5.30;93.40
4908;DHT22;64375;51.540;7.364;2024-03-08T05:33:42;5.20;93.40
4908;DHT22;64375;51.540;7.364;2024-03-08T05:36:16;5.10;94.80
4908;DHT22;64375;51.540;7.364;2024-03-08T05:38:44;5.20;95.60
4908;DHT22;64375;51.540;7.364;2024-03-08T05:41:15;5.10;94.60
4908;DHT22;64375;51.540;7.364;2024-03-08T05:43:47;5.00;94.50
4908;DHT22;64375;51.540;7.364;2024-03-08T05:46:21;5.10;94.70
4908;DHT22;64375;51.540;7.364;2024-03-08T05:48:58;5.10;96.20
4908;DHT22;64375;51.540;7.364;2024-03-08T05:51:32;5.10;94.50
4908;DHT22;64375;51.540;7.364;2024-03-08T05:54:01;5.10;94.60
4908;DHT22;64375;51.540;7.364;2024-03-08T05:56:30;5.10;95.10
4908;DHT22;64375;51.540;7.364;2024-03-08T05:59:02;5.20;95.40
4908;DHT22;64375;51.540;7.364;2024-03-08T06:01:30;5.30;94.70
4908;DHT22;64375;51.540;7.364;2024-03-08T06:03:58;5.30;94.20
4908;DHT22;64375;51.540;7.364;2024-03-08T06:06:29;5.20;93.80
4908;DHT22;64375;51.540;7.364;2024-03-08T06:09:02;5.10;94.00
4908;DHT22;64375;51.540;7.364;2024-03-08T06:11:39;4.90;96.30
4908;DHT22;64375;51.540;7.364;2024-03-08T06:14:10;5.00;95.70
4908;DHT22;64375;51.540;7.364;2024-03-08T06:16:44;4.90;93.90
4908;DHT22;64375;51.540;7.364;2024-03-08T06:19:16;4.80;93.70
4908;DHT22;64375;51.540;7.364;2024-03-08T06:21:47;4.60;95.60
4908;DHT22;64375;51.540;7.364;2024-03-08T06:24:24;4.60;96.10
4908;DHT22;64375;51.540;7.364;2024-03-08T06:26:54;4.70;94.90
4908;DHT22;64375;51.540;7.364;2024-03-08T06:29:24;4.60;94.40
4908;DHT22;64375;51.540;7.364;2024-03-08T06:31:53;4.80;95.90
4908;DHT22;64375;51.540;7.364;2024-03-08T06:34:23;4.80;94.90
4908;DHT22;64375;51.540;7.364;2024-03-08T06:36:51;4.70;95.00
4908;DHT22;64375;51.540;7.364;2024-03-08T06:39:25;4.70;94.50
4908;DHT22;64375;51.540;7.364;2024-03-08T06:41:55;4.70;94.70
4908;DHT22;64375;51.540;7.364;2024-03-08T06:44:27;4.60;94.60
4908;DHT22;64375;51.540;7.364;2024-03-08T06:46:55;4.60;94.90
4908;DHT22;64375;51.540;7.364;2024-03-08T06:49:26;4.60;95.60
4908;DHT22;64375;51.540;7.364;2024-03-08T06:51:57;4.60;94.80
4908;DHT22;64375;51.540;7.364;2024-03-08T06:54:25;4.50;94.80
4908;DHT22;64375;51.540;7.364;2024-03-08T06:56:53;4.50;95.80
4908;DHT22;64375;51.540;7.364;2024-03-08T06:59:31;4.50;96.30
4908;DHT22;64375;51.540;7.364;2024-03-08T07:01:59;4.60;95.00
4908;DHT22;64375;51.540;7.364;2024-03-08T07:04:27;4.60;95.20
4908;DHT22;64375;51.540;7.364;2024-03-08T07:06:56;4.60;95.60
4908;DHT22;64375;51.540;7.364;2024-03-08T07:09:30;4.60;95.30
4908;DHT22;64375;51.540;7.364;2024-03-08T07:12:14;4.70;95.10
4908;DHT22;64375;51.540;7.364;2024-03-08T07:14:49;4.70;95.70
4908;DHT22;64375;51.540;7.364;2024-03-08T07:17:20;4.70;96.20
4908;DHT22;64375;51.540;7.364;2024-03-08T07:19:48;5.30;97.60
4908;DHT22;64375;51.540;7.364;2024-03-08T07:22:17;5.30;95.20
4908;DHT22;64375;51.540;7.364;2024-03-08T07:24:51;5.30;95.30
4908;DHT22;64375;51.540;7.364;2024-03-08T07:27:42;5.30;94.80
4908;DHT22;64375;51.540;7.364;2024-03-08T07:30:17;5.30;94.90
4908;DHT22;64375;51.540;7.364;2024-03-08T07:33:09;5.40;95.00
4908;DHT22;64375;51.540;7.364;2024-03-08T07:35:42;5.30;94.60
4908;DHT22;64375;51.540;7.364;2024-03-08T07:38:14;5.40;94.80
4908;DHT22;64375;51.540;7.364;2024-03-08T07:40:49;5.30;94.40
4908;DHT22;64375;51.540;7.364;2024-03-08T07:43:19;5.20;94.70
4908;DHT22;64375;51.540;7.364;2024-03-08T07:45:53;5.20;95.10
4908;DHT22;64375;51.540;7.364;2024-03-08T07:48:30;5.30;94.50
4908;DHT22;64375;51.540;7.364;2024-03-08T07:51:02;5.20;94.80
4908;DHT22;64375;51.540;7.364;2024-03-08T07:53:30;5.20;94.70
4908;DHT22;64375;51.540;7.364;2024-03-08T07:56:05;5.20;95.20
4908;DHT22;64375;51.540;7.364;2024-03-08T07:58:45;5.20;94.60
4908;DHT22;64375;51.540;7.364;2024-03-08T08:01:21;5.20;94.70
4908;DHT22;64375;51.540;7.364;2024-03-08T08:03:55;5.20;94.80
4908;DHT22;64375;51.540;7.364;2024-03-08T08:06:26;5.20;94.90
4908;DHT22;64375;51.540;7.364;2024-03-08T08:09:00;5.10;95.50
4908;DHT22;64375;51.540;7.364;2024-03-08T08:11:28;5.20;96.00
4908;DHT22;64375;51.540;7.364;2024-03-08T08:14:02;5.30;95.30
4908;DHT22;64375;51.540;7.364;2024-03-08T08:16:34;5.50;94.80
4908;DHT22;64375;51.540;7.364;2024-03-08T08:19:03;5.60;95.00
4908;DHT22;64375;51.540;7.364;2024-03-08T08:21:42;5.50;94.60
4908;DHT22;64375;51.540;7.364;2024-03-08T08:24:12;5.60;95.20
4908;DHT22;64375;51.540;7.364;2024-03-08T08:26:44;5.70;94.80
4908;DHT22;64375;51.540;7.364;2024-03-08T08:29:12;5.70;94.40
4908;DHT22;64375;51.540;7.364;2024-03-08T08:31:44;5.80;95.00
4908;DHT22;64375;51.540;7.364;2024-03-08T08:34:14;5.90;94.60
4908;DHT22;64375;51.540;7.364;2024-03-08T08:36:46;5.90;94.50
4908;DHT22;64375;51.540;7.364;2024-03-08T08:39:14;6.00;94.70
4908;DHT22;64375;51.540;7.364;2024-03-08T08:41:49;6.00;94.80
4908;DHT22;64375;51.540;7.364;2024-03-08T08:44:27;6.10;94.20
4908;DHT22;64375;51.540;7.364;2024-03-08T08:46:57;6.10;94.60
4908;DHT22;64375;51.540;7.364;2024-03-08T08:49:40;6.30;94.50
4908;DHT22;64375;51.540;7.364;2024-03-08T08:52:12;6.40;94.10
4908;DHT22;64375;51.540;7.364;2024-03-08T08:54:43;6.40;94.10
4908;DHT22;64375;51.540;7.364;2024-03-08T08:57:16;6.50;93.90
4908;DHT22;64375;51.540;7.364;2024-03-08T08:59:44;6.50;93.80
4908;DHT22;64375;51.540;7.364;2024-03-08T09:02:13;6.50;94.20
4908;DHT22;64375;51.540;7.364;2024-03-08T09:04:44;6.60;93.70
4908;DHT22;64375;51.540;7.364;2024-03-08T09:07:12;6.60;93.60
4908;DHT22;64375;51.540;7.364;2024-03-08T09:09:42;6.70;93.60
4908;DHT22;64375;51.540;7.364;2024-03-08T09:12:10;6.90;94.10
4908;DHT22;64375;51.540;7.364;2024-03-08T09:14:40;7.10;94.10
4908;DHT22;64375;51.540;7.364;2024-03-08T09:17:08;7.20;93.10
4908;DHT22;64375;51.540;7.364;2024-03-08T09:19:37;7.20;93.30
4908;DHT22;64375;51.540;7.364;2024-03-08T09:22:06;7.20;92.90
4908;DHT22;64375;51.540;7.364;2024-03-08T09:24:41;7.10;92.50
4908;DHT22;64375;51.540;7.364;2024-03-08T09:27:14;7.10;93.00
4908;DHT22;64375;51.540;7.364;2024-03-08T09:29:42;7.10;93.00
4908;DHT22;64375;51.540;7.364;2024-03-08T09:32:13;7.10;92.30
4908;DHT22;64375;51.540;7.364;2024-03-08T09:34:45;7.00;92.80
4908;DHT22;64375;51.540;7.364;2024-03-08T09:37:13;7.10;92.90
4908;DHT22;64375;51.540;7.364;2024-03-08T09:39:41;7.10;92.30
4908;DHT22;64375;51.540;7.364;2024-03-08T09:42:09;7.10;92.50
4908;DHT22;64375;51.540;7.364;2024-03-08T09:44:37;7.00;92.90
4908;DHT22;64375;51.540;7.364;2024-03-08T09:47:06;7.10;92.60
4908;DHT22;64375;51.540;7.364;2024-03-08T09:49:35;7.50;93.20
4908;DHT22;64375;51.540;7.364;2024-03-08T09:52:09;7.50;92.00
4908;DHT22;64375;51.540;7.364;2024-03-08T09:54:39;7.50;91.90
4908;DHT22;64375;51.540;7.364;2024-03-08T09:57:11;7.40;92.10
4908;DHT22;64375;51.540;7.364;2024-03-08T09:59:39;7.30;92.00
4908;DHT22;64375;51.540;7.364;2024-03-08T10:02:16;7.30;92.10
4908;DHT22;64375;51.540;7.364;2024-03-08T10:04:45;7.20;92.70
4908;DHT22;64375;51.540;7.364;2024-03-08T10:07:15;7.40;93.20
4908;DHT22;64375;51.540;7.364;2024-03-08T10:09:43;7.50;92.60
4908;DHT22;64375;51.540;7.364;2024-03-08T10:12:16;7.60;92.70
4908;DHT22;64375;51.540;7.364;2024-03-08T10:14:48;7.60;92.00
4908;DHT22;64375;51.540;7.364;2024-03-08T10:17:16;7.60;92.40
4908;DHT22;64375;51.540;7.364;2024-03-08T10:19:49;7.60;92.10
4908;DHT22;64375;51.540;7.364;2024-03-08T10:22:19;7.70;92.40
4908;DHT22;64375;51.540;7.364;2024-03-08T10:24:47;7.70;92.40
4908;DHT22;64375;51.540;7.364;2024-03-08T10:27:17;7.70;92.20
4908;DHT22;64375;51.540;7.364;2024-03-08T10:29:48;7.70;92.20
4908;DHT22;64375;51.540;7.364;2024-03-08T10:32:18;7.80;92.10
4908;DHT22;64375;51.540;7.364;2024-03-08T10:34:47;7.80;92.40
4908;DHT22;64375;51.540;7.364;2024-03-08T10:37:21;7.90;92.30
4908;DHT22;64375;51.540;7.364;2024-03-08T10:40:00;7.90;92.00
4908;DHT22;64375;51.540;7.364;2024-03-08T10:42:53;7.90;92.30
4908;DHT22;64375;51.540;7.364;2024-03-08T10:45:42;7.90;92.10
4908;DHT22;64375;51.540;7.364;2024-03-08T10:48:30;7.90;92.20
4908;DHT22;64375;51.540;7.364;2024-03-08T10:51:05;7.90;91.90
4908;DHT22;64375;51.540;7.364;2024-03-08T10:53:47;7.90;92.70
4908;DHT22;64375;51.540;7.364;2024-03-08T10:56:17;8.20;92.40
4908;DHT22;64375;51.540;7.364;2024-03-08T10:58:46;8.20;92.20
4908;DHT22;64375;51.540;7.364;2024-03-08T11:01:15;8.20;92.30
4908;DHT22;64375;51.540;7.364;2024-03-08T11:03:47;8.30;92.80
4908;DHT22;64375;51.540;7.364;2024-03-08T11:06:23;8.30;91.90
4908;DHT22;64375;51.540;7.364;2024-03-08T11:08:59;8.30;93.20
4908;DHT22;64375;51.540;7.364;2024-03-08T11:11:31;8.40;91.60
4908;DHT22;64375;51.540;7.364;2024-03-08T11:14:42;8.40;92.80
4908;DHT22;64375;51.540;7.364;2024-03-08T11:17:10;8.70;92.40
4908;DHT22;64375;51.540;7.364;2024-03-08T11:19:38;8.70;91.70
4908;DHT22;64375;51.540;7.364;2024-03-08T11:22:23;8.70;92.10
4908;DHT22;64375;51.540;7.364;2024-03-08T11:24:58;8.70;92.10
4908;DHT22;64375;51.540;7.364;2024-03-08T11:27:29;8.80;92.70
4908;DHT22;64375;51.540;7.364;2024-03-08T11:30:02;8.80;92.00
4908;DHT22;64375;51.540;7.364;2024-03-08T11:32:45;8.90;92.20
4908;DHT22;64375;51.540;7.364;2024-03-08T11:35:18;8.90;92.60
4908;DHT22;64375;51.540;7.364;2024-03-08T11:37:54;9.00;92.60
4908;DHT22;64375;51.540;7.364;2024-03-08T11:40:23;9.10;92.50
4908;DHT22;64375;51.540;7.364;2024-03-08T11:42:52;9.20;92.50
4908;DHT22;64375;51.540;7.364;2024-03-08T11:45:20;9.30;92.00
4908;DHT22;64375;51.540;7.364;2024-03-08T11:47:48;9.30;91.70
4908;DHT22;64375;51.540;7.364;2024-03-08T11:50:18;9.30;91.60
4908;DHT22;64375;51.540;7.364;2024-03-08T11:52:47;9.40;91.40
4908;DHT22;64375;51.540;7.364;2024-03-08T11:55:23;9.50;91.20
4908;DHT22;64375;51.540;7.364;2024-03-08T11:58:01;9.50;91.70
4908;DHT22;64375;51.540;7.364;2024-03-08T12:00:29;9.60;91.30
4908;DHT22;64375;51.540;7.364;2024-03-08T12:03:06;9.70;90.90
4908;DHT22;64375;51.540;7.364;2024-03-08T12:05:39;9.80;91.00
4908;DHT22;64375;51.540;7.364;2024-03-08T12:08:08;9.80;90.80
4908;DHT22;64375;51.540;7.364;2024-03-08T12:10:45;9.90;92.00
4908;DHT22;64375;51.540;7.364;2024-03-08T12:13:17;10.10;90.30
4908;DHT22;64375;51.540;7.364;2024-03-08T12:15:45;10.10;88.70
4908;DHT22;64375;51.540;7.364;2024-03-08T12:18:19;10.40;90.30
4908;DHT22;64375;51.540;7.364;2024-03-08T12:20:50;11.00;90.10
4908;DHT22;64375;51.540;7.364;2024-03-08T12:23:18;11.00;82.60
4908;DHT22;64375;51.540;7.364;2024-03-08T12:25:45;11.20;83.30
4908;DHT22;64375;51.540;7.364;2024-03-08T12:28:14;11.20;79.80
4908;DHT22;64375;51.540;7.364;2024-03-08T12:30:48;11.20;79.00
4908;DHT22;64375;51.540;7.364;2024-03-08T12:33:15;11.10;81.40
4908;DHT22;64375;51.540;7.364;2024-03-08T12:35:52;11.10;80.40
4908;DHT22;64375;51.540;7.364;2024-03-08T12:38:28;11.10;81.00
4908;DHT22;64375;51.540;7.364;2024-03-08T12:40:58;11.20;80.90
4908;DHT22;64375;51.540;7.364;2024-03-08T12:43:29;11.40;84.20
4908;DHT22;64375;51.540;7.364;2024-03-08T12:46:00;11.40;78.80
4908;DHT22;64375;51.540;7.364;2024-03-08T12:48:40;11.50;79.40
4908;DHT22;64375;51.540;7.364;2024-03-08T12:51:12;11.60;79.60
4908;DHT22;64375;51.540;7.364;2024-03-08T12:53:40;11.60;79.10
4908;DHT22;64375;51.540;7.364;2024-03-08T12:56:11;11.50;78.30
4908;DHT22;64375;51.540;7.364;2024-03-08T12:58:39;11.60;78.30
4908;DHT22;64375;51.540;7.364;2024-03-08T13:01:09;11.50;77.70
4908;DHT22;64375;51.540;7.364;2024-03-08T13:03:40;11.40;79.00
4908;DHT22;64375;51.540;7.364;2024-03-08T13:06:10;11.40;78.60
4908;DHT22;64375;51.540;7.364;2024-03-08T13:08:44;11.40;77.70
4908;DHT22;64375;51.540;7.364;2024-03-08T13:11:14;11.40;79.90
4908;DHT22;64375;51.540;7.364;2024-03-08T13:13:45;11.60;76.60
4908;DHT22;64375;51.540;7.364;2024-03-08T13:16:15;11.50;79.60
4908;DHT22;64375;51.540;7.364;2024-03-08T13:18:47;11.60;79.70
4908;DHT22;64375;51.540;7.364;2024-03-08T13:21:20;11.40;81.00
4908;DHT22;64375;51.540;7.364;2024-03-08T13:23:50;11.50;79.80
4908;DHT22;64375;51.540;7.364;2024-03-08T13:26:20;11.40;80.50
4908;DHT22;64375;51.540;7.364;2024-03-08T13:28:48;11.40;83.30
4908;DHT22;64375;51.540;7.364;2024-03-08T13:31:21;11.40;82.50
4908;DHT22;64375;51.540;7.364;2024-03-08T13:33:49;11.50;80.20
4908;DHT22;64375;51.540;7.364;2024-03-08T13:36:26;11.50;80.50
4908;DHT22;64375;51.540;7.364;2024-03-08T13:38:57;11.40;81.50
4908;DHT22;64375;51.540;7.364;2024-03-08T13:41:26;11.50;80.40
4908;DHT22;64375;51.540;7.364;2024-03-08T13:43:57;11.50;80.30
4908;DHT22;64375;51.540;7.364;2024-03-08T13:46:33;11.30;81.10
4908;DHT22;64375;51.540;7.364;2024-03-08T13:49:04;11.20;79.80
4908;DHT22;64375;51.540;7.364;2024-03-08T13:51:34;11.30;84.50
4908;DHT22;64375;51.540;7.364;2024-03-08T13:54:11;11.40;88.90
4908;DHT22;64375;51.540;7.364;2024-03-08T13:56:40;11.40;82.40
4908;DHT22;64375;51.540;7.364;2024-03-08T13:59:16;11.50;81.40
4908;DHT22;64375;51.540;7.364;2024-03-08T14:01:53;11.40;81.40
4908;DHT22;64375;51.540;7.364;2024-03-08T14:04:21;11.30;80.10
4908;DHT22;64375;51.540;7.364;2024-03-08T14:06:49;11.20;80.80
4908;DHT22;64375;51.540;7.364;2024-03-08T14:09:21;11.20;82.40
4908;DHT22;64375;51.540;7.364;2024-03-08T14:11:54;11.30;81.30
4908;DHT22;64375;51.540;7.364;2024-03-08T14:14:22;11.30;80.50
4908;DHT22;64375;51.540;7.364;2024-03-08T14:16:58;11.20;82.90
4908;DHT22;64375;51.540;7.364;2024-03-08T14:19:26;11.30;82.10
4908;DHT22;64375;51.540;7.364;2024-03-08T14:22:00;11.40;80.50
4908;DHT22;64375;51.540;7.364;2024-03-08T14:24:33;11.30;80.40
4908;DHT22;64375;51.540;7.364;2024-03-08T14:27:05;11.40;83.50
4908;DHT22;64375;51.540;7.364;2024-03-08T14:29:35;11.40;80.00
4908;DHT22;64375;51.540;7.364;2024-03-08T14:32:07;11.30;84.30
4908;DHT22;64375;51.540;7.364;2024-03-08T14:34:39;11.40;81.80
4908;DHT22;64375;51.540;7.364;2024-03-08T14:37:10;11.50;86.90
4908;DHT22;64375;51.540;7.364;2024-03-08T14:39:40;11.50;87.60
4908;DHT22;64375;51.540;7.364;2024-03-08T14:42:08;11.60;79.00
4908;DHT22;64375;51.540;7.364;2024-03-08T14:44:40;11.50;79.40
4908;DHT22;64375;51.540;7.364;2024-03-08T14:47:09;11.50;77.40
4908;DHT22;64375;51.540;7.364;2024-03-08T14:49:38;11.50;77.30
4908;DHT22;64375;51.540;7.364;2024-03-08T14:52:09;11.50;77.40
4908;DHT22;64375;51.540;7.364;2024-03-08T14:55:11;11.50;78.00
4908;DHT22;64375;51.540;7.364;2024-03-08T14:57:41;11.50;81.70
4908;DHT22;64375;51.540;7.364;2024-03-08T15:00:13;11.50;83.00
4908;DHT22;64375;51.540;7.364;2024-03-08T15:03:01;11.60;83.60
4908;DHT22;64375;51.540;7.364;2024-03-08T15:05:32;11.60;84.00
4908;DHT22;64375;51.540;7.364;2024-03-08T15:08:03;11.50;83.60
4908;DHT22;64375;51.540;7.364;2024-03-08T15:10:37;11.50;82.60
4908;DHT22;64375;51.540;7.364;2024-03-08T15:13:11;11.50;87.20
4908;DHT22;64375;51.540;7.364;2024-03-08T15:15:54;11.50;83.20
4908;DHT22;64375;51.540;7.364;2024-03-08T15:18:25;11.50;85.80
4908;DHT22;64375;51.540;7.364;2024-03-08T15:20:53;11.60;84.40
4908;DHT22;64375;51.540;7.364;2024-03-08T15:23:24;11.50;82.50
4908;DHT22;64375;51.540;7.364;2024-03-08T15:25:52;11.50;83.80
4908;DHT22;64375;51.540;7.364;2024-03-08T15:28:20;11.50;82.20
4908;DHT22;64375;51.540;7.364;2024-03-08T15:30:59;11.50;83.60
4908;DHT22;64375;51.540;7.364;2024-03-08T15:33:40;11.60;83.90
4908;DHT22;64375;51.540;7.364;2024-03-08T15:36:15;11.50;83.60
4908;DHT22;64375;51.540;7.364;2024-03-08T15:38:47;11.50;82.60
4908;DHT22;64375;51.540;7.364;2024-03-08T15:41:19;11.50;81.30
4908;DHT22;64375;51.540;7.364;2024-03-08T15:43:48;11.40;82.40
4908;DHT22;64375;51.540;7.364;2024-03-08T15:46:19;11.50;81.30
4908;DHT22;64375;51.540;7.364;2024-03-08T15:48:52;11.50;81.90
4908;DHT22;64375;51.540;7.364;2024-03-08T15:51:23;11.40;82.10
4908;DHT22;64375;51.540;7.364;2024-03-08T15:53:54;11.50;82.90
4908;DHT22;64375;51.540;7.364;2024-03-08T15:56:23;11.60;84.10
4908;DHT22;64375;51.540;7.364;2024-03-08T15:58:58;11.50;85.30
4908;DHT22;64375;51.540;7.364;2024-03-08T16:01:27;11.60;83.00
4908;DHT22;64375;51.540;7.364;2024-03-08T16:04:05;11.50;82.90
4908;DHT22;64375;51.540;7.364;2024-03-08T16:06:36;11.50;87.50
4908;DHT22;64375;51.540;7.364;2024-03-08T16:09:06;11.50;83.20
4908;DHT22;64375;51.540;7.364;2024-03-08T16:11:39;11.70;98.80
4908;DHT22;64375;51.540;7.364;2024-03-08T16:14:10;11.80;86.90
4908;DHT22;64375;51.540;7.364;2024-03-08T16:16:38;11.80;94.00
4908;DHT22;64375;51.540;7.364;2024-03-08T16:19:08;12.10;94.10
4908;DHT22;64375;51.540;7.364;2024-03-08T16:21:41;12.20;89.70
4908;DHT22;64375;51.540;7.364;2024-03-08T16:24:10;12.00;79.50
4908;DHT22;64375;51.540;7.364;2024-03-08T16:26:38;11.80;81.90
4908;DHT22;64375;51.540;7.364;2024-03-08T16:29:10;11.80;79.50